sensor_id;sensor_type;location;lat;lon;timestamp;P1;durP1;ratioP1;P2;durP2;ratioP2
15012;SDS011;7603;49.432;11.418;2023-06-22T00:00:55;11.48;;;10.45;;
15012;SDS011;7603;49.432;11.418;2023-06-22T00:03:22;10.68;;;9.73;;
15012;SDS011;7603;49.432;11.418;2023-06-22T00:05:49;10.20;;;9.30;;
15012;SDS011;7603;49.432;11.418;2023-06-22T00:08:16;11.82;;;10.63;;
15012;SDS011;7603;49.432;11.418;2023-06-22T00:10:42;10.90;;;9.80;;
15012;SDS011;7603;49.432;11.418;2023-06-22T00:13:08;11.07;;;10.15;;
15012;SDS011;7603;49.432;11.418;2023-06-22T00:15:35;10.60;;;9.52;;
15012;SDS011;7603;49.432;11.418;2023-06-22T00:18:02;13.05;;;9.73;;
15012;SDS011;7603;49.432;11.418;2023-06-22T00:20:28;11.05;;;10.05;;
15012;SDS011;7603;49.432;11.418;2023-06-22T00:22:55;9.90;;;8.77;;
15012;SDS011;7603;49.432;11.418;2023-06-22T00:25:21;14.20;;;10.43;;
15012;SDS011;7603;49.432;11.418;2023-06-22T00:27:47;13.57;;;12.20;;
15012;SDS011;7603;49.432;11.418;2023-06-22T00:30:13;12.93;;;11.25;;
15012;SDS011;7603;49.432;11.418;2023-06-22T00:32:39;11.07;;;10.00;;
15012;SDS011;7603;49.432;11.418;2023-06-22T00:35:04;12.75;;;10.73;;
15012;SDS011;7603;49.432;11.418;2023-06-22T00:37:30;11.85;;;11.05;;
15012;SDS011;7603;49.432;11.418;2023-06-22T00:39:56;10.30;;;9.57;;
15012;SDS011;7603;49.432;11.418;2023-06-22T00:42:22;10.80;;;9.73;;
15012;SDS011;7603;49.432;11.418;2023-06-22T00:44:47;12.85;;;10.20;;
15012;SDS011;7603;49.432;11.418;2023-06-22T00:47:13;10.70;;;9.63;;
15012;SDS011;7603;49.432;11.418;2023-06-22T00:49:42;13.02;;;9.93;;
15012;SDS011;7603;49.432;11.418;2023-06-22T00:52:08;10.02;;;9.13;;
15012;SDS011;7603;49.432;11.418;2023-06-22T00:54:40;10.32;;;9.40;;
15012;SDS011;7603;49.432;11.418;2023-06-22T00:57:13;10.55;;;9.43;;
15012;SDS011;7603;49.432;11.418;2023-06-22T00:59:41;10.82;;;9.80;;
15012;SDS011;7603;49.432;11.418;2023-06-22T01:02:10;15.25;;;13.85;;
15012;SDS011;7603;49.432;11.418;2023-06-22T01:04:37;16.75;;;10.15;;
15012;SDS011;7603;49.432;11.418;2023-06-22T01:07:07;11.90;;;9.43;;
15012;SDS011;7603;49.432;11.418;2023-06-22T01:12:22;10.95;;;9.85;;
15012;SDS011;7603;49.432;11.418;2023-06-22T01:14:55;10.25;;;9.43;;
15012;SDS011;7603;49.432;11.418;2023-06-22T01:17:29;10.13;;;9.27;;
15012;SDS011;7603;49.432;11.418;2023-06-22T01:19:57;10.60;;;9.85;;
15012;SDS011;7603;49.432;11.418;2023-06-22T01:22:25;11.63;;;10.10;;
15012;SDS011;7603;49.432;11.418;2023-06-22T01:30:02;9.95;;;9.15;;
15012;SDS011;7603;49.432;11.418;2023-06-22T01:32:30;10.95;;;10.15;;
15012;SDS011;7603;49.432;11.418;2023-06-22T01:35:01;10.85;;;9.90;;
15012;SDS011;7603;49.432;11.418;2023-06-22T01:37:30;10.90;;;9.82;;
15012;SDS011;7603;49.432;11.418;2023-06-22T01:39:57;10.10;;;9.10;;
15012;SDS011;7603;49.432;11.418;2023-06-22T01:42:24;11.50;;;9.88;;
15012;SDS011;7603;49.432;11.418;2023-06-22T01:44:51;11.75;;;10.63;;
15012;SDS011;7603;49.432;11.418;2023-06-22T01:47:18;14.30;;;10.77;;
15012;SDS011;7603;49.432;11.418;2023-06-22T01:49:44;11.55;;;10.48;;
15012;SDS011;7603;49.432;11.418;2023-06-22T01:52:23;10.88;;;9.93;;
15012;SDS011;7603;49.432;11.418;2023-06-22T01:54:48;10.55;;;9.60;;
15012;SDS011;7603;49.432;11.418;2023-06-22T01:57:14;11.77;;;10.15;;
15012;SDS011;7603;49.432;11.418;2023-06-22T01:59:59;11.95;;;10.88;;
15012;SDS011;7603;49.432;11.418;2023-06-22T02:02:26;12.38;;;9.80;;
15012;SDS011;7603;49.432;11.418;2023-06-22T02:04:59;11.30;;;10.30;;
15012;SDS011;7603;49.432;11.418;2023-06-22T02:07:32;10.07;;;9.18;;
15012;SDS011;7603;49.432;11.418;2023-06-22T02:10:01;11.23;;;9.77;;
15012;SDS011;7603;49.432;11.418;2023-06-22T02:12:28;12.75;;;9.45;;
15012;SDS011;7603;49.432;11.418;2023-06-22T02:14:56;12.15;;;8.95;;
15012;SDS011;7603;49.432;11.418;2023-06-22T02:17:22;9.55;;;8.85;;
15012;SDS011;7603;49.432;11.418;2023-06-22T02:19:49;11.38;;;10.35;;
15012;SDS011;7603;49.432;11.418;2023-06-22T02:22:14;10.00;;;9.20;;
15012;SDS011;7603;49.432;11.418;2023-06-22T02:24:40;12.18;;;10.45;;
15012;SDS011;7603;49.432;11.418;2023-06-22T02:27:05;11.82;;;10.82;;
15012;SDS011;7603;49.432;11.418;2023-06-22T02:29:32;11.07;;;10.07;;
15012;SDS011;7603;49.432;11.418;2023-06-22T02:31:57;10.75;;;9.88;;
15012;SDS011;7603;49.432;11.418;2023-06-22T02:34:23;11.27;;;10.05;;
15012;SDS011;7603;49.432;11.418;2023-06-22T02:36:49;10.52;;;9.43;;
15012;SDS011;7603;49.432;11.418;2023-06-22T02:39:19;10.88;;;10.07;;
15012;SDS011;7603;49.432;11.418;2023-06-22T02:41:49;10.82;;;10.02;;
15012;SDS011;7603;49.432;11.418;2023-06-22T02:44:15;11.30;;;10.35;;
15012;SDS011;7603;49.432;11.418;2023-06-22T02:46:40;9.45;;;8.85;;
15012;SDS011;7603;49.432;11.418;2023-06-22T02:49:06;11.77;;;10.52;;
15012;SDS011;7603;49.432;11.418;2023-06-22T02:51:33;9.93;;;9.13;;
15012;SDS011;7603;49.432;11.418;2023-06-22T02:53:59;10.30;;;9.40;;
15012;SDS011;7603;49.432;11.418;2023-06-22T02:56:25;10.68;;;9.93;;
15012;SDS011;7603;49.432;11.418;2023-06-22T02:58:51;11.20;;;10.27;;
15012;SDS011;7603;49.432;11.418;2023-06-22T03:01:17;10.90;;;9.80;;
15012;SDS011;7603;49.432;11.418;2023-06-22T03:03:48;12.20;;;11.10;;
15012;SDS011;7603;49.432;11.418;2023-06-22T03:06:13;9.25;;;8.32;;
15012;SDS011;7603;49.432;11.418;2023-06-22T03:08:39;13.48;;;10.45;;
15012;SDS011;7603;49.432;11.418;2023-06-22T03:11:06;10.63;;;9.70;;
15012;SDS011;7603;49.432;11.418;2023-06-22T03:13:32;12.85;;;10.77;;
15012;SDS011;7603;49.432;11.418;2023-06-22T03:15:58;12.85;;;11.65;;
15012;SDS011;7603;49.432;11.418;2023-06-22T03:18:24;12.50;;;11.52;;
15012;SDS011;7603;49.432;11.418;2023-06-22T03:20:49;15.05;;;13.52;;
15012;SDS011;7603;49.432;11.418;2023-06-22T03:23:15;14.13;;;12.13;;
15012;SDS011;7603;49.432;11.418;2023-06-22T03:25:41;14.45;;;13.30;;
15012;SDS011;7603;49.432;11.418;2023-06-22T03:28:07;13.27;;;11.98;;
15012;SDS011;7603;49.432;11.418;2023-06-22T03:30:32;16.85;;;12.80;;
15012;SDS011;7603;49.432;11.418;2023-06-22T03:32:58;15.23;;;13.73;;
15012;SDS011;7603;49.432;11.418;2023-06-22T03:35:23;14.88;;;13.38;;
15012;SDS011;7603;49.432;11.418;2023-06-22T03:37:49;15.38;;;13.32;;
15012;SDS011;7603;49.432;11.418;2023-06-22T03:40:14;14.73;;;13.32;;
15012;SDS011;7603;49.432;11.418;2023-06-22T03:42:40;15.23;;;13.73;;
15012;SDS011;7603;49.432;11.418;2023-06-22T03:45:06;15.13;;;13.73;;
15012;SDS011;7603;49.432;11.418;2023-06-22T03:47:32;15.13;;;13.73;;
15012;SDS011;7603;49.432;11.418;2023-06-22T03:49:58;15.88;;;14.25;;
15012;SDS011;7603;49.432;11.418;2023-06-22T03:52:24;16.30;;;14.70;;
15012;SDS011;7603;49.432;11.418;2023-06-22T03:54:50;16.75;;;15.15;;
15012;SDS011;7603;49.432;11.418;2023-06-22T03:57:16;16.15;;;14.45;;
15012;SDS011;7603;49.432;11.418;2023-06-22T03:59:41;16.63;;;14.88;;
15012;SDS011;7603;49.432;11.418;2023-06-22T04:02:07;16.40;;;14.75;;
15012;SDS011;7603;49.432;11.418;2023-06-22T04:04:32;19.13;;;15.63;;
15012;SDS011;7603;49.432;11.418;2023-06-22T04:07:00;16.00;;;14.40;;
15012;SDS011;7603;49.432;11.418;2023-06-22T04:09:25;15.77;;;14.13;;
15012;SDS011;7603;49.432;11.418;2023-06-22T04:11:51;17.15;;;15.27;;
15012;SDS011;7603;49.432;11.418;2023-06-22T04:14:17;15.48;;;14.07;;
15012;SDS011;7603;49.432;11.418;2023-06-22T04:16:42;20.27;;;15.15;;
15012;SDS011;7603;49.432;11.418;2023-06-22T04:19:08;19.10;;;16.95;;
15012;SDS011;7603;49.432;11.418;2023-06-22T04:21:39;18.60;;;15.55;;
15012;SDS011;7603;49.432;11.418;2023-06-22T04:24:04;17.00;;;15.30;;
15012;SDS011;7603;49.432;11.418;2023-06-22T04:26:30;16.50;;;14.80;;
15012;SDS011;7603;49.432;11.418;2023-06-22T04:29:02;16.25;;;14.77;;
15012;SDS011;7603;49.432;11.418;2023-06-22T04:31:31;15.68;;;14.13;;
15012;SDS011;7603;49.432;11.418;2023-06-22T04:34:01;15.93;;;14.40;;
15012;SDS011;7603;49.432;11.418;2023-06-22T04:36:40;16.00;;;14.30;;
15012;SDS011;7603;49.432;11.418;2023-06-22T04:41:36;16.02;;;14.73;;
15012;SDS011;7603;49.432;11.418;2023-06-22T04:44:14;16.10;;;14.60;;
15012;SDS011;7603;49.432;11.418;2023-06-22T04:46:50;18.15;;;14.77;;
15012;SDS011;7603;49.432;11.418;2023-06-22T04:49:24;17.45;;;15.35;;
15012;SDS011;7603;49.432;11.418;2023-06-22T04:51:58;16.35;;;14.57;;
15012;SDS011;7603;49.432;11.418;2023-06-22T04:54:25;15.85;;;14.45;;
15012;SDS011;7603;49.432;11.418;2023-06-22T04:56:50;14.27;;;12.98;;
15012;SDS011;7603;49.432;11.418;2023-06-22T04:59:24;19.23;;;13.20;;
15012;SDS011;7603;49.432;11.418;2023-06-22T05:01:58;14.07;;;12.65;;
15012;SDS011;7603;49.432;11.418;2023-06-22T05:04:25;15.23;;;13.88;;
15012;SDS011;7603;49.432;11.418;2023-06-22T05:06:52;14.15;;;12.63;;
15012;SDS011;7603;49.432;11.418;2023-06-22T05:09:19;13.55;;;12.50;;
15012;SDS011;7603;49.432;11.418;2023-06-22T05:11:46;13.48;;;12.30;;
15012;SDS011;7603;49.432;11.418;2023-06-22T05:14:11;12.93;;;11.80;;
15012;SDS011;7603;49.432;11.418;2023-06-22T05:16:37;12.75;;;11.52;;
15012;SDS011;7603;49.432;11.418;2023-06-22T05:19:04;12.00;;;10.80;;
15012;SDS011;7603;49.432;11.418;2023-06-22T05:21:30;11.80;;;10.70;;
15012;SDS011;7603;49.432;11.418;2023-06-22T05:23:56;12.13;;;11.02;;
15012;SDS011;7603;49.432;11.418;2023-06-22T05:26:25;12.00;;;11.10;;
15012;SDS011;7603;49.432;11.418;2023-06-22T05:28:51;11.55;;;10.55;;
15012;SDS011;7603;49.432;11.418;2023-06-22T05:31:17;12.95;;;12.05;;
15012;SDS011;7603;49.432;11.418;2023-06-22T05:33:44;10.07;;;9.38;;
15012;SDS011;7603;49.432;11.418;2023-06-22T05:36:11;10.73;;;9.82;;
15012;SDS011;7603;49.432;11.418;2023-06-22T05:38:37;11.27;;;10.18;;
15012;SDS011;7603;49.432;11.418;2023-06-22T05:41:04;10.15;;;9.38;;
15012;SDS011;7603;49.432;11.418;2023-06-22T05:43:29;9.98;;;9.23;;
15012;SDS011;7603;49.432;11.418;2023-06-22T05:45:55;10.48;;;9.57;;
15012;SDS011;7603;49.432;11.418;2023-06-22T05:48:21;11.25;;;10.38;;
15012;SDS011;7603;49.432;11.418;2023-06-22T05:50:46;10.02;;;9.15;;
15012;SDS011;7603;49.432;11.418;2023-06-22T05:53:12;10.38;;;9.45;;
15012;SDS011;7603;49.432;11.418;2023-06-22T05:55:38;10.30;;;9.35;;
15012;SDS011;7603;49.432;11.418;2023-06-22T05:58:03;9.82;;;9.13;;
15012;SDS011;7603;49.432;11.418;2023-06-22T06:00:29;10.90;;;10.00;;
15012;SDS011;7603;49.432;11.418;2023-06-22T06:02:55;10.80;;;9.40;;
15012;SDS011;7603;49.432;11.418;2023-06-22T06:05:21;9.90;;;9.10;;
15012;SDS011;7603;49.432;11.418;2023-06-22T06:07:48;9.65;;;8.57;;
15012;SDS011;7603;49.432;11.418;2023-06-22T06:10:14;9.52;;;8.82;;
15012;SDS011;7603;49.432;11.418;2023-06-22T06:12:40;9.40;;;8.68;;
15012;SDS011;7603;49.432;11.418;2023-06-22T06:15:05;9.95;;;8.88;;
15012;SDS011;7603;49.432;11.418;2023-06-22T06:17:31;9.00;;;8.20;;
15012;SDS011;7603;49.432;11.418;2023-06-22T06:19:59;9.82;;;9.05;;
15012;SDS011;7603;49.432;11.418;2023-06-22T06:22:25;9.07;;;8.23;;
15012;SDS011;7603;49.432;11.418;2023-06-22T06:24:51;9.25;;;8.45;;
15012;SDS011;7603;49.432;11.418;2023-06-22T06:27:17;9.15;;;8.32;;
15012;SDS011;7603;49.432;11.418;2023-06-22T06:29:45;8.82;;;8.23;;
15012;SDS011;7603;49.432;11.418;2023-06-22T06:32:13;9.20;;;8.40;;
15012;SDS011;7603;49.432;11.418;2023-06-22T06:34:38;8.70;;;8.10;;
15012;SDS011;7603;49.432;11.418;2023-06-22T06:37:05;8.63;;;7.90;;
15012;SDS011;7603;49.432;11.418;2023-06-22T06:39:30;8.82;;;8.13;;
15012;SDS011;7603;49.432;11.418;2023-06-22T06:41:56;8.85;;;8.20;;
15012;SDS011;7603;49.432;11.418;2023-06-22T06:44:21;7.82;;;7.30;;
15012;SDS011;7603;49.432;11.418;2023-06-22T06:46:47;8.20;;;7.60;;
15012;SDS011;7603;49.432;11.418;2023-06-22T06:49:13;16.52;;;7.70;;
15012;SDS011;7603;49.432;11.418;2023-06-22T06:51:38;9.00;;;8.07;;
15012;SDS011;7603;49.432;11.418;2023-06-22T06:54:04;7.53;;;7.13;;
15012;SDS011;7603;49.432;11.418;2023-06-22T06:56:29;7.88;;;7.20;;
15012;SDS011;7603;49.432;11.418;2023-06-22T06:58:55;7.90;;;7.40;;
15012;SDS011;7603;49.432;11.418;2023-06-22T07:01:21;7.72;;;6.75;;
15012;SDS011;7603;49.432;11.418;2023-06-22T07:03:46;7.45;;;6.82;;
15012;SDS011;7603;49.432;11.418;2023-06-22T07:06:13;7.13;;;6.45;;
15012;SDS011;7603;49.432;11.418;2023-06-22T07:08:38;7.05;;;6.40;;
15012;SDS011;7603;49.432;11.418;2023-06-22T07:11:05;6.97;;;6.15;;
15012;SDS011;7603;49.432;11.418;2023-06-22T07:13:31;6.90;;;6.40;;
15012;SDS011;7603;49.432;11.418;2023-06-22T07:15:56;6.95;;;6.38;;
15012;SDS011;7603;49.432;11.418;2023-06-22T07:18:22;6.60;;;6.10;;
15012;SDS011;7603;49.432;11.418;2023-06-22T07:20:48;6.03;;;5.32;;
15012;SDS011;7603;49.432;11.418;2023-06-22T07:23:13;6.25;;;5.65;;
15012;SDS011;7603;49.432;11.418;2023-06-22T07:25:39;6.72;;;5.32;;
15012;SDS011;7603;49.432;11.418;2023-06-22T07:28:05;6.78;;;5.82;;
15012;SDS011;7603;49.432;11.418;2023-06-22T07:30:32;7.18;;;6.47;;
15012;SDS011;7603;49.432;11.418;2023-06-22T07:32:58;6.60;;;6.00;;
15012;SDS011;7603;49.432;11.418;2023-06-22T07:35:28;5.70;;;5.20;;
15012;SDS011;7603;49.432;11.418;2023-06-22T07:37:54;6.10;;;5.60;;
15012;SDS011;7603;49.432;11.418;2023-06-22T07:40:20;6.70;;;5.95;;
15012;SDS011;7603;49.432;11.418;2023-06-22T07:42:46;7.82;;;5.53;;
15012;SDS011;7603;49.432;11.418;2023-06-22T07:45:13;5.47;;;5.07;;
15012;SDS011;7603;49.432;11.418;2023-06-22T07:47:39;6.32;;;5.60;;
15012;SDS011;7603;49.432;11.418;2023-06-22T07:50:05;6.10;;;5.50;;
15012;SDS011;7603;49.432;11.418;2023-06-22T07:52:31;6.68;;;6.18;;
15012;SDS011;7603;49.432;11.418;2023-06-22T07:54:57;8.35;;;5.38;;
15012;SDS011;7603;49.432;11.418;2023-06-22T07:57:23;6.43;;;5.18;;
15012;SDS011;7603;49.432;11.418;2023-06-22T07:59:56;6.20;;;5.60;;
15012;SDS011;7603;49.432;11.418;2023-06-22T08:02:22;7.85;;;5.68;;
15012;SDS011;7603;49.432;11.418;2023-06-22T08:04:48;9.02;;;5.60;;
15012;SDS011;7603;49.432;11.418;2023-06-22T08:07:13;5.50;;;5.10;;
15012;SDS011;7603;49.432;11.418;2023-06-22T08:09:39;5.32;;;5.03;;
15012;SDS011;7603;49.432;11.418;2023-06-22T08:12:12;6.88;;;5.78;;
15012;SDS011;7603;49.432;11.418;2023-06-22T08:14:38;6.43;;;5.90;;
15012;SDS011;7603;49.432;11.418;2023-06-22T08:17:04;6.10;;;5.70;;
15012;SDS011;7603;49.432;11.418;2023-06-22T08:19:29;6.20;;;5.60;;
15012;SDS011;7603;49.432;11.418;2023-06-22T08:21:55;5.55;;;5.05;;
15012;SDS011;7603;49.432;11.418;2023-06-22T08:24:21;6.20;;;5.70;;
15012;SDS011;7603;49.432;11.418;2023-06-22T08:26:47;5.80;;;5.30;;
15012;SDS011;7603;49.432;11.418;2023-06-22T08:29:12;5.88;;;5.22;;
15012;SDS011;7603;49.432;11.418;2023-06-22T08:31:38;5.75;;;5.10;;
15012;SDS011;7603;49.432;11.418;2023-06-22T08:34:03;8.68;;;5.90;;
15012;SDS011;7603;49.432;11.418;2023-06-22T08:36:29;8.35;;;5.85;;
15012;SDS011;7603;49.432;11.418;2023-06-22T08:38:57;6.07;;;5.55;;
15012;SDS011;7603;49.432;11.418;2023-06-22T08:41:27;6.30;;;5.70;;
15012;SDS011;7603;49.432;11.418;2023-06-22T08:43:53;8.40;;;5.55;;
15012;SDS011;7603;49.432;11.418;2023-06-22T08:46:19;6.28;;;5.55;;
15012;SDS011;7603;49.432;11.418;2023-06-22T08:48:48;7.20;;;5.72;;
15012;SDS011;7603;49.432;11.418;2023-06-22T08:51:14;7.18;;;5.38;;
15012;SDS011;7603;49.432;11.418;2023-06-22T08:53:39;6.53;;;5.35;;
15012;SDS011;7603;49.432;11.418;2023-06-22T08:56:05;6.13;;;5.53;;
15012;SDS011;7603;49.432;11.418;2023-06-22T08:58:30;5.95;;;5.43;;
15012;SDS011;7603;49.432;11.418;2023-06-22T09:00:56;6.97;;;6.13;;
15012;SDS011;7603;49.432;11.418;2023-06-22T09:03:22;6.35;;;5.40;;
15012;SDS011;7603;49.432;11.418;2023-06-22T09:05:51;11.35;;;5.82;;
15012;SDS011;7603;49.432;11.418;2023-06-22T09:08:16;6.50;;;5.93;;
15012;SDS011;7603;49.432;11.418;2023-06-22T09:10:42;5.35;;;4.95;;
15012;SDS011;7603;49.432;11.418;2023-06-22T09:13:07;8.40;;;5.65;;
15012;SDS011;7603;49.432;11.418;2023-06-22T09:15:33;5.80;;;5.05;;
15012;SDS011;7603;49.432;11.418;2023-06-22T09:17:59;6.78;;;5.35;;
15012;SDS011;7603;49.432;11.418;2023-06-22T09:20:25;10.38;;;6.63;;
15012;SDS011;7603;49.432;11.418;2023-06-22T09:22:50;7.55;;;5.28;;
15012;SDS011;7603;49.432;11.418;2023-06-22T09:25:16;9.07;;;5.55;;
15012;SDS011;7603;49.432;11.418;2023-06-22T09:27:42;5.97;;;5.05;;
15012;SDS011;7603;49.432;11.418;2023-06-22T09:30:07;6.63;;;4.82;;
15012;SDS011;7603;49.432;11.418;2023-06-22T09:32:33;5.75;;;5.35;;
15012;SDS011;7603;49.432;11.418;2023-06-22T09:35:02;9.75;;;5.38;;
15012;SDS011;7603;49.432;11.418;2023-06-22T09:37:30;8.93;;;5.82;;
15012;SDS011;7603;49.432;11.418;2023-06-22T09:39:56;10.13;;;5.80;;
15012;SDS011;7603;49.432;11.418;2023-06-22T09:42:21;5.88;;;5.22;;
15012;SDS011;7603;49.432;11.418;2023-06-22T09:44:47;5.53;;;4.88;;
15012;SDS011;7603;49.432;11.418;2023-06-22T09:47:12;6.28;;;5.78;;
15012;SDS011;7603;49.432;11.418;2023-06-22T09:49:38;8.77;;;5.65;;
15012;SDS011;7603;49.432;11.418;2023-06-22T09:52:04;6.85;;;5.57;;
15012;SDS011;7603;49.432;11.418;2023-06-22T09:54:30;6.03;;;5.32;;
15012;SDS011;7603;49.432;11.418;2023-06-22T09:56:56;6.68;;;5.10;;
15012;SDS011;7603;49.432;11.418;2023-06-22T09:59:21;6.20;;;5.57;;
15012;SDS011;7603;49.432;11.418;2023-06-22T10:01:47;6.47;;;5.32;;
15012;SDS011;7603;49.432;11.418;2023-06-22T10:04:12;6.65;;;5.65;;
15012;SDS011;7603;49.432;11.418;2023-06-22T10:06:38;7.07;;;4.93;;
15012;SDS011;7603;49.432;11.418;2023-06-22T10:09:06;6.18;;;5.50;;
15012;SDS011;7603;49.432;11.418;2023-06-22T10:11:32;6.63;;;4.82;;
15012;SDS011;7603;49.432;11.418;2023-06-22T10:13:59;7.93;;;5.15;;
15012;SDS011;7603;49.432;11.418;2023-06-22T10:16:32;5.93;;;5.03;;
15012;SDS011;7603;49.432;11.418;2023-06-22T10:19:00;7.05;;;5.10;;
15012;SDS011;7603;49.432;11.418;2023-06-22T10:21:26;7.45;;;5.50;;
15012;SDS011;7603;49.432;11.418;2023-06-22T10:23:53;7.10;;;5.47;;
15012;SDS011;7603;49.432;11.418;2023-06-22T10:26:19;8.05;;;5.15;;
15012;SDS011;7603;49.432;11.418;2023-06-22T10:28:44;5.68;;;5.15;;
15012;SDS011;7603;49.432;11.418;2023-06-22T10:31:10;5.78;;;5.05;;
15012;SDS011;7603;49.432;11.418;2023-06-22T10:33:35;7.78;;;5.22;;
15012;SDS011;7603;49.432;11.418;2023-06-22T10:36:01;6.63;;;5.43;;
15012;SDS011;7603;49.432;11.418;2023-06-22T10:38:26;9.45;;;5.50;;
15012;SDS011;7603;49.432;11.418;2023-06-22T10:40:52;7.35;;;5.32;;
15012;SDS011;7603;49.432;11.418;2023-06-22T10:43:18;7.68;;;4.65;;
15012;SDS011;7603;49.432;11.418;2023-06-22T10:45:43;8.00;;;5.00;;
15012;SDS011;7603;49.432;11.418;2023-06-22T10:48:09;7.55;;;5.45;;
15012;SDS011;7603;49.432;11.418;2023-06-22T10:50:34;5.30;;;4.80;;
15012;SDS011;7603;49.432;11.418;2023-06-22T10:53:00;8.63;;;4.90;;
15012;SDS011;7603;49.432;11.418;2023-06-22T10:55:25;4.93;;;4.32;;
15012;SDS011;7603;49.432;11.418;2023-06-22T10:57:51;6.28;;;4.70;;
15012;SDS011;7603;49.432;11.418;2023-06-22T11:00:17;7.82;;;5.10;;
15012;SDS011;7603;49.432;11.418;2023-06-22T11:02:43;10.98;;;5.05;;
15012;SDS011;7603;49.432;11.418;2023-06-22T11:05:09;10.32;;;5.22;;
15012;SDS011;7603;49.432;11.418;2023-06-22T11:07:34;7.35;;;4.88;;
15012;SDS011;7603;49.432;11.418;2023-06-22T11:10:00;8.45;;;4.20;;
15012;SDS011;7603;49.432;11.418;2023-06-22T11:12:25;6.15;;;5.22;;
15012;SDS011;7603;49.432;11.418;2023-06-22T11:14:51;7.00;;;4.80;;
15012;SDS011;7603;49.432;11.418;2023-06-22T11:17:17;5.90;;;4.38;;
15012;SDS011;7603;49.432;11.418;2023-06-22T11:19:44;7.00;;;4.60;;
15012;SDS011;7603;49.432;11.418;2023-06-22T11:22:10;5.25;;;3.78;;
15012;SDS011;7603;49.432;11.418;2023-06-22T11:24:35;6.82;;;4.10;;
15012;SDS011;7603;49.432;11.418;2023-06-22T11:27:01;7.00;;;4.65;;
15012;SDS011;7603;49.432;11.418;2023-06-22T11:29:28;5.53;;;4.50;;
15012;SDS011;7603;49.432;11.418;2023-06-22T11:31:53;7.30;;;4.32;;
15012;SDS011;7603;49.432;11.418;2023-06-22T11:34:19;13.02;;;4.22;;
15012;SDS011;7603;49.432;11.418;2023-06-22T11:36:44;4.95;;;4.25;;
15012;SDS011;7603;49.432;11.418;2023-06-22T11:39:11;8.02;;;3.95;;
15012;SDS011;7603;49.432;11.418;2023-06-22T11:41:39;5.13;;;4.47;;
15012;SDS011;7603;49.432;11.418;2023-06-22T11:44:04;4.30;;;3.88;;
15012;SDS011;7603;49.432;11.418;2023-06-22T11:46:30;4.95;;;4.13;;
15012;SDS011;7603;49.432;11.418;2023-06-22T11:48:56;4.57;;;4.15;;
15012;SDS011;7603;49.432;11.418;2023-06-22T11:51:22;4.45;;;4.05;;
15012;SDS011;7603;49.432;11.418;2023-06-22T11:53:48;10.00;;;4.78;;
15012;SDS011;7603;49.432;11.418;2023-06-22T11:56:13;4.97;;;4.00;;
15012;SDS011;7603;49.432;11.418;2023-06-22T11:58:39;8.18;;;4.15;;
15012;SDS011;7603;49.432;11.418;2023-06-22T12:01:04;7.93;;;4.03;;
15012;SDS011;7603;49.432;11.418;2023-06-22T12:03:30;6.55;;;3.80;;
15012;SDS011;7603;49.432;11.418;2023-06-22T12:05:55;7.25;;;4.35;;
15012;SDS011;7603;49.432;11.418;2023-06-22T12:08:21;5.97;;;4.07;;
15012;SDS011;7603;49.432;11.418;2023-06-22T12:10:47;5.93;;;3.95;;
15012;SDS011;7603;49.432;11.418;2023-06-22T12:13:14;6.78;;;4.43;;
15012;SDS011;7603;49.432;11.418;2023-06-22T12:15:40;8.88;;;4.18;;
15012;SDS011;7603;49.432;11.418;2023-06-22T12:18:06;9.60;;;4.35;;
15012;SDS011;7603;49.432;11.418;2023-06-22T12:20:31;4.78;;;4.07;;
15012;SDS011;7603;49.432;11.418;2023-06-22T12:22:57;6.65;;;4.22;;
15012;SDS011;7603;49.432;11.418;2023-06-22T12:25:23;6.85;;;4.28;;
15012;SDS011;7603;49.432;11.418;2023-06-22T12:27:49;5.50;;;4.32;;
15012;SDS011;7603;49.432;11.418;2023-06-22T12:30:15;7.78;;;4.10;;
15012;SDS011;7603;49.432;11.418;2023-06-22T12:32:41;6.28;;;4.63;;
15012;SDS011;7603;49.432;11.418;2023-06-22T12:35:07;9.25;;;4.50;;
15012;SDS011;7603;49.432;11.418;2023-06-22T12:37:38;7.93;;;4.70;;
15012;SDS011;7603;49.432;11.418;2023-06-22T12:40:04;6.10;;;3.97;;
15012;SDS011;7603;49.432;11.418;2023-06-22T12:42:30;7.03;;;4.22;;
15012;SDS011;7603;49.432;11.418;2023-06-22T12:44:56;9.82;;;4.70;;
15012;SDS011;7603;49.432;11.418;2023-06-22T12:47:21;7.68;;;3.65;;
15012;SDS011;7603;49.432;11.418;2023-06-22T12:49:47;9.68;;;4.53;;
15012;SDS011;7603;49.432;11.418;2023-06-22T12:52:12;9.02;;;4.70;;
15012;SDS011;7603;49.432;11.418;2023-06-22T12:54:38;9.85;;;4.82;;
15012;SDS011;7603;49.432;11.418;2023-06-22T12:57:04;8.57;;;4.47;;
15012;SDS011;7603;49.432;11.418;2023-06-22T12:59:29;6.75;;;4.55;;
15012;SDS011;7603;49.432;11.418;2023-06-22T13:01:55;7.85;;;4.25;;
15012;SDS011;7603;49.432;11.418;2023-06-22T13:04:21;8.20;;;4.38;;
15012;SDS011;7603;49.432;11.418;2023-06-22T13:06:46;7.60;;;4.55;;
15012;SDS011;7603;49.432;11.418;2023-06-22T13:09:13;7.45;;;4.15;;
15012;SDS011;7603;49.432;11.418;2023-06-22T13:11:40;11.77;;;4.13;;
15012;SDS011;7603;49.432;11.418;2023-06-22T13:14:05;7.78;;;4.28;;
15012;SDS011;7603;49.432;11.418;2023-06-22T13:16:31;8.55;;;4.68;;
15012;SDS011;7603;49.432;11.418;2023-06-22T13:18:56;7.53;;;4.93;;
15012;SDS011;7603;49.432;11.418;2023-06-22T13:21:22;7.25;;;3.92;;
15012;SDS011;7603;49.432;11.418;2023-06-22T13:23:47;7.82;;;4.18;;
15012;SDS011;7603;49.432;11.418;2023-06-22T13:26:13;6.97;;;4.38;;
15012;SDS011;7603;49.432;11.418;2023-06-22T13:28:39;7.68;;;4.43;;
15012;SDS011;7603;49.432;11.418;2023-06-22T13:31:04;10.35;;;4.82;;
15012;SDS011;7603;49.432;11.418;2023-06-22T13:33:30;8.25;;;4.22;;
15012;SDS011;7603;49.432;11.418;2023-06-22T13:35:56;10.30;;;4.75;;
15012;SDS011;7603;49.432;11.418;2023-06-22T13:38:21;5.53;;;4.65;;
15012;SDS011;7603;49.432;11.418;2023-06-22T13:40:47;11.75;;;4.65;;
15012;SDS011;7603;49.432;11.418;2023-06-22T13:43:13;8.65;;;4.28;;
15012;SDS011;7603;49.432;11.418;2023-06-22T13:45:39;8.32;;;4.20;;
15012;SDS011;7603;49.432;11.418;2023-06-22T13:48:06;5.43;;;4.88;;
15012;SDS011;7603;49.432;11.418;2023-06-22T13:50:32;10.18;;;4.47;;
15012;SDS011;7603;49.432;11.418;2023-06-22T13:52:58;6.30;;;4.55;;
15012;SDS011;7603;49.432;11.418;2023-06-22T13:55:23;9.23;;;5.28;;
15012;SDS011;7603;49.432;11.418;2023-06-22T13:57:49;10.32;;;5.95;;
15012;SDS011;7603;49.432;11.418;2023-06-22T14:00:16;13.98;;;4.70;;
15012;SDS011;7603;49.432;11.418;2023-06-22T14:02:42;5.65;;;4.82;;
15012;SDS011;7603;49.432;11.418;2023-06-22T14:05:08;13.02;;;4.80;;
15012;SDS011;7603;49.432;11.418;2023-06-22T14:07:33;13.32;;;4.93;;
15012;SDS011;7603;49.432;11.418;2023-06-22T14:09:59;9.20;;;4.38;;
15012;SDS011;7603;49.432;11.418;2023-06-22T14:12:25;9.57;;;5.25;;
15012;SDS011;7603;49.432;11.418;2023-06-22T14:14:51;11.40;;;5.15;;
15012;SDS011;7603;49.432;11.418;2023-06-22T14:17:17;6.85;;;4.70;;
15012;SDS011;7603;49.432;11.418;2023-06-22T14:19:48;6.88;;;4.63;;
15012;SDS011;7603;49.432;11.418;2023-06-22T14:22:14;10.32;;;4.78;;
15012;SDS011;7603;49.432;11.418;2023-06-22T14:24:40;11.07;;;4.90;;
15012;SDS011;7603;49.432;11.418;2023-06-22T14:27:06;6.32;;;4.88;;
15012;SDS011;7603;49.432;11.418;2023-06-22T14:29:33;14.73;;;5.43;;
15012;SDS011;7603;49.432;11.418;2023-06-22T14:31:59;7.40;;;4.80;;
15012;SDS011;7603;49.432;11.418;2023-06-22T14:34:25;8.05;;;4.57;;
15012;SDS011;7603;49.432;11.418;2023-06-22T14:36:50;6.38;;;4.80;;
15012;SDS011;7603;49.432;11.418;2023-06-22T14:39:16;9.20;;;5.63;;
15012;SDS011;7603;49.432;11.418;2023-06-22T14:41:41;9.82;;;4.80;;
15012;SDS011;7603;49.432;11.418;2023-06-22T14:44:07;15.75;;;4.93;;